createdAt,value
2022-12-27T00:01:21.260Z,4.15
2022-12-27T00:03:47.871Z,2.95
2022-12-27T00:06:19.851Z,3.58
2022-12-27T00:08:46.594Z,2.88
2022-12-27T00:11:19.058Z,3.20
2022-12-27T00:13:45.220Z,3.95
2022-12-27T00:16:15.100Z,3.80
2022-12-27T00:18:41.861Z,3.35
2022-12-27T00:21:10.871Z,3.42
2022-12-27T00:23:44.123Z,4.57
2022-12-27T00:26:14.963Z,3.38
2022-12-27T00:28:41.111Z,3.33
2022-12-27T00:31:07.378Z,2.95
2022-12-27T00:33:34.974Z,3.92
2022-12-27T00:36:03.828Z,3.03
2022-12-27T00:38:30.876Z,3.03
2022-12-27T00:40:56.836Z,3.65
2022-12-27T00:43:22.745Z,3.10
2022-12-27T00:45:48.765Z,5.47
2022-12-27T00:48:15.048Z,3.05
2022-12-27T00:50:42.804Z,3.35
2022-12-27T00:53:10.274Z,4.10
2022-12-27T00:55:36.583Z,3.00
2022-12-27T00:58:02.952Z,3.40
2022-12-27T01:00:28.986Z,3.20
2022-12-27T01:02:54.862Z,2.95
2022-12-27T01:05:21.454Z,3.35
2022-12-27T01:07:47.758Z,3.60
2022-12-27T01:10:14.267Z,2.70
2022-12-27T01:12:40.428Z,2.70
2022-12-27T01:15:08.431Z,2.90
2022-12-27T01:17:34.475Z,3.33
2022-12-27T01:20:00.385Z,2.92
2022-12-27T01:22:26.239Z,3.22
2022-12-27T01:24:52.176Z,3.20
2022-12-27T01:27:18.057Z,3.25
2022-12-27T01:29:43.960Z,3.30
2022-12-27T01:32:09.829Z,3.13
2022-12-27T01:34:35.723Z,3.53
2022-12-27T01:37:01.603Z,3.25
2022-12-27T01:39:27.534Z,3.00
2022-12-27T01:42:11.842Z,3.38
2022-12-27T01:44:48.373Z,3.45
2022-12-27T01:47:38.323Z,2.90
2022-12-27T01:50:09.964Z,2.80
2022-12-27T01:52:46.260Z,3.00
2022-12-27T01:55:33.547Z,3.83
2022-12-27T01:58:10.859Z,3.08
2022-12-27T02:00:38.195Z,4.00
2022-12-27T02:03:05.497Z,3.42
2022-12-27T02:05:32.623Z,3.58
2022-12-27T02:08:24.428Z,3.35
2022-12-27T02:10:50.621Z,2.92
2022-12-27T02:13:16.528Z,3.65
2022-12-27T02:15:42.520Z,2.80
2022-12-27T02:18:08.373Z,3.25
2022-12-27T02:21:10.280Z,2.85
2022-12-27T02:24:03.271Z,2.78
2022-12-27T02:26:46.257Z,3.17
2022-12-27T02:29:53.461Z,4.20
2022-12-27T02:32:51.132Z,3.90
2022-12-27T02:35:16.947Z,3.35
2022-12-27T02:37:50.158Z,4.00
2022-12-27T02:40:39.472Z,3.72
2022-12-27T02:43:24.866Z,3.55
2022-12-27T02:46:29.550Z,3.95
2022-12-27T02:49:16.496Z,3.15
2022-12-27T02:52:24.763Z,4.10
2022-12-27T02:55:35.265Z,3.78
2022-12-27T02:58:19.496Z,3.78
2022-12-27T03:01:28.936Z,4.18
2022-12-27T03:04:25.644Z,3.80
2022-12-27T03:07:01.346Z,4.00
2022-12-27T03:10:05.066Z,4.28
2022-12-27T03:13:09.717Z,3.90
2022-12-27T03:16:02.904Z,4.40
2022-12-27T03:18:48.461Z,4.90
2022-12-27T03:21:41.951Z,4.55
2022-12-27T03:24:28.774Z,4.63
2022-12-27T03:26:56.932Z,5.68
2022-12-27T03:29:41.526Z,5.25
2022-12-27T03:32:28.891Z,4.93
2022-12-27T03:35:04.186Z,5.43
2022-12-27T03:37:52.456Z,4.82
2022-12-27T03:40:34.028Z,4.95
2022-12-27T03:43:10.375Z,6.00
2022-12-27T03:46:16.370Z,5.20
2022-12-27T03:48:56.139Z,5.90
2022-12-27T03:51:24.296Z,4.97
2022-12-27T03:53:57.945Z,5.07
2022-12-27T03:56:24.056Z,5.82
2022-12-27T03:58:50.831Z,5.50
2022-12-27T04:01:16.721Z,5.13
2022-12-27T04:03:42.730Z,7.43
2022-12-27T04:06:08.548Z,6.15
2022-12-27T04:08:52.959Z,6.68
2022-12-27T04:11:37.342Z,6.20
2022-12-27T04:14:21.743Z,6.82
2022-12-27T04:17:06.082Z,7.72
2022-12-27T04:19:50.506Z,6.13
2022-12-27T04:22:34.831Z,6.53
2022-12-27T04:25:19.120Z,6.78
2022-12-27T04:28:03.391Z,6.60
2022-12-27T04:30:47.796Z,7.95
2022-12-27T04:33:32.192Z,8.43
2022-12-27T04:36:02.752Z,8.45
2022-12-27T04:38:31.738Z,9.07
2022-12-27T04:41:16.060Z,8.57
2022-12-27T04:44:00.542Z,9.25
2022-12-27T04:46:44.913Z,9.25
2022-12-27T04:49:37.110Z,8.48
2022-12-27T04:52:28.873Z,9.27
2022-12-27T04:54:57.557Z,10.40
2022-12-27T04:57:24.849Z,9.57
2022-12-27T05:00:09.010Z,10.05
2022-12-27T05:02:35.423Z,9.00
2022-12-27T05:05:01.685Z,10.57
2022-12-27T05:07:46.322Z,9.85
2022-12-27T05:10:30.946Z,9.48
2022-12-27T05:13:15.369Z,9.35
2022-12-27T05:15:41.254Z,10.25
2022-12-27T05:18:07.127Z,9.88
2022-12-27T05:20:34.437Z,10.05
2022-12-27T05:23:18.819Z,10.05
2022-12-27T05:25:45.855Z,10.45
2022-12-27T05:28:12.413Z,10.32
2022-12-27T05:30:41.191Z,8.98
2022-12-27T05:33:07.337Z,10.07
2022-12-27T05:35:33.898Z,8.50
2022-12-27T05:38:00.752Z,8.80
2022-12-27T05:40:26.895Z,9.35
2022-12-27T05:42:52.901Z,8.88
2022-12-27T05:45:19.312Z,9.05
2022-12-27T05:47:45.211Z,8.40
2022-12-27T05:50:11.438Z,9.30
2022-12-27T05:52:40.903Z,7.85
2022-12-27T05:55:08.122Z,8.73
2022-12-27T05:57:34.095Z,8.10
2022-12-27T06:00:00.041Z,8.70
2022-12-27T06:02:26.048Z,7.85
2022-12-27T06:04:52.027Z,7.80
2022-12-27T06:07:17.912Z,7.90
2022-12-27T06:09:43.749Z,8.05
2022-12-27T06:12:09.567Z,7.63
2022-12-27T06:14:35.509Z,7.88
2022-12-27T06:17:01.339Z,6.88
2022-12-27T06:19:27.137Z,7.32
2022-12-27T06:21:52.971Z,6.57
2022-12-27T06:24:18.730Z,7.25
2022-12-27T06:26:44.644Z,6.88
2022-12-27T06:29:13.591Z,7.90
2022-12-27T06:31:39.777Z,6.80
2022-12-27T06:34:05.642Z,7.72
2022-12-27T06:36:31.884Z,7.45
2022-12-27T06:38:59.174Z,7.95
2022-12-27T06:41:25.789Z,6.82
2022-12-27T06:43:57.038Z,7.40
2022-12-27T06:46:23.885Z,9.35
2022-12-27T06:48:50.219Z,8.15
2022-12-27T06:51:18.358Z,8.32
2022-12-27T06:53:44.278Z,6.70
2022-12-27T06:56:16.172Z,6.80
2022-12-27T06:58:42.008Z,6.60
2022-12-27T07:01:13.151Z,6.68
2022-12-27T07:03:39.473Z,6.85
2022-12-27T07:06:07.805Z,6.50
2022-12-27T07:08:36.931Z,7.00
2022-12-27T07:11:05.958Z,6.90
2022-12-27T07:13:36.818Z,6.88
2022-12-27T07:16:05.097Z,6.28
2022-12-27T07:18:31.343Z,6.65
2022-12-27T07:20:57.355Z,6.78
2022-12-27T07:23:23.184Z,5.70
2022-12-27T07:25:49.045Z,6.75
2022-12-27T07:28:15.191Z,7.30
2022-12-27T07:30:41.904Z,6.72
2022-12-27T07:33:08.334Z,6.10
2022-12-27T07:35:34.169Z,6.18
2022-12-27T07:38:00.017Z,7.18
2022-12-27T07:40:26.008Z,6.32
2022-12-27T07:42:51.808Z,6.63
2022-12-27T07:45:17.712Z,6.63
2022-12-27T07:47:43.902Z,6.97
2022-12-27T07:50:09.750Z,6.82
2022-12-27T07:52:35.551Z,6.97
2022-12-27T07:55:01.344Z,6.43
2022-12-27T07:57:30.177Z,6.57
2022-12-27T07:59:56.035Z,7.40
2022-12-27T08:02:21.959Z,7.40
2022-12-27T08:04:47.817Z,6.85
2022-12-27T08:07:19.071Z,7.40
2022-12-27T08:09:46.860Z,7.38
2022-12-27T08:12:13.495Z,7.25
2022-12-27T08:14:39.960Z,7.00
2022-12-27T08:17:13.874Z,6.88
2022-12-27T08:19:39.821Z,7.22
2022-12-27T08:22:05.648Z,7.75
2022-12-27T08:24:31.835Z,8.35
2022-12-27T08:26:57.803Z,7.03
2022-12-27T08:29:23.971Z,7.00
2022-12-27T08:31:49.796Z,6.68
2022-12-27T08:34:15.883Z,7.68
2022-12-27T08:36:57.424Z,6.78
2022-12-27T08:39:23.600Z,6.50
2022-12-27T08:41:51.873Z,6.40
2022-12-27T08:44:17.685Z,7.75
2022-12-27T08:46:43.736Z,7.45
2022-12-27T08:49:09.564Z,6.18
2022-12-27T08:51:41.074Z,6.00
2022-12-27T08:54:07.940Z,6.32
2022-12-27T08:56:33.831Z,6.90
2022-12-27T08:58:59.714Z,6.35
2022-12-27T09:01:25.597Z,5.93
2022-12-27T09:03:51.740Z,6.72
2022-12-27T09:06:22.794Z,7.28
2022-12-27T09:08:50.487Z,7.47
2022-12-27T09:11:28.918Z,6.50
2022-12-27T09:13:55.575Z,6.40
2022-12-27T09:16:24.603Z,6.85
2022-12-27T09:18:52.522Z,6.93
2022-12-27T09:21:21.040Z,7.25
2022-12-27T09:23:47.850Z,6.93
2022-12-27T09:26:16.647Z,8.38
2022-12-27T09:28:42.796Z,7.07
2022-12-27T09:31:10.499Z,8.15
2022-12-27T09:33:36.891Z,7.10
2022-12-27T09:36:12.299Z,7.95
2022-12-27T09:38:38.507Z,6.53
2022-12-27T09:42:12.139Z,7.20
2022-12-27T09:44:15.697Z,7.80
2022-12-27T09:47:04.597Z,6.97
2022-12-27T09:49:35.312Z,5.55
2022-12-27T09:52:11.637Z,5.32
2022-12-27T09:54:43.567Z,6.15
2022-12-27T09:57:27.880Z,5.75
2022-12-27T09:59:58.650Z,6.82
2022-12-27T10:02:26.468Z,5.93
2022-12-27T10:05:19.834Z,6.22
2022-12-27T10:08:08.515Z,6.05
2022-12-27T10:10:50.092Z,5.85
2022-12-27T10:13:46.628Z,5.72
2022-12-27T10:16:30.625Z,6.03
2022-12-27T10:19:18.793Z,5.45
2022-12-27T10:22:02.807Z,5.93
2022-12-27T10:24:38.431Z,5.63
2022-12-27T10:29:36.468Z,5.20
2022-12-27T10:32:03.314Z,5.95
2022-12-27T10:34:29.257Z,6.28
2022-12-27T10:36:55.168Z,5.38
2022-12-27T10:39:29.415Z,5.88
2022-12-27T10:42:07.977Z,6.20
2022-12-27T10:44:34.040Z,5.82
2022-12-27T10:47:00.289Z,5.60
2022-12-27T10:49:31.834Z,5.68
2022-12-27T10:52:27.457Z,5.22
2022-12-27T10:54:56.436Z,4.70
2022-12-27T10:57:32.774Z,4.88
2022-12-27T11:00:13.330Z,5.72
2022-12-27T11:02:54.213Z,4.95
2022-12-27T11:05:23.409Z,5.65
2022-12-27T11:07:49.433Z,4.93
2022-12-27T11:10:24.562Z,4.85
2022-12-27T11:12:57.856Z,4.40
2022-12-27T11:15:25.065Z,4.80
2022-12-27T11:17:59.884Z,4.97
2022-12-27T11:20:29.601Z,4.40
2022-12-27T11:23:00.801Z,4.13
2022-12-27T11:25:28.631Z,4.50
2022-12-27T11:27:59.913Z,3.65
2022-12-27T11:30:37.198Z,3.67
2022-12-27T11:33:25.143Z,4.63
2022-12-27T11:35:54.892Z,4.47
2022-12-27T11:38:28.230Z,4.40
2022-12-27T11:41:30.914Z,4.43
2022-12-27T11:44:28.826Z,4.28
2022-12-27T11:47:19.152Z,4.68
2022-12-27T11:50:10.859Z,5.13
2022-12-27T11:53:01.255Z,3.72
2022-12-27T11:55:42.071Z,4.32
2022-12-27T11:58:26.314Z,3.97
2022-12-27T12:01:10.781Z,4.38
2022-12-27T12:03:59.193Z,3.85
2022-12-27T12:07:03.885Z,4.15
2022-12-27T12:09:35.813Z,4.15
2022-12-27T12:12:16.742Z,4.40
2022-12-27T12:15:12.557Z,4.10
2022-12-27T12:17:59.364Z,3.90
2022-12-27T12:20:34.050Z,3.83
2022-12-27T12:23:26.451Z,3.90
2022-12-27T12:26:12.824Z,4.72
2022-12-27T12:28:58.723Z,3.63
2022-12-27T12:31:46.671Z,4.28
2022-12-27T12:34:50.276Z,3.00
2022-12-27T12:37:34.901Z,2.85
2022-12-27T12:40:43.933Z,3.38
2022-12-27T12:43:15.728Z,3.33
2022-12-27T12:45:52.853Z,3.08
2022-12-27T12:48:32.642Z,3.80
2022-12-27T12:51:32.085Z,3.38
2022-12-27T12:54:15.217Z,3.47
2022-12-27T12:56:55.841Z,3.10
2022-12-27T12:59:48.836Z,3.15
2022-12-27T13:02:33.256Z,3.10
2022-12-27T13:04:59.191Z,4.07
2022-12-27T13:07:53.944Z,2.72
2022-12-27T13:10:46.123Z,3.72
2022-12-27T13:13:25.449Z,3.20
2022-12-27T13:16:22.942Z,2.75
2022-12-27T13:19:05.622Z,2.30
2022-12-27T13:21:37.118Z,2.20
2022-12-27T13:24:16.931Z,2.90
2022-12-27T13:27:01.705Z,2.53
2022-12-27T13:29:39.787Z,2.22
2022-12-27T13:32:14.672Z,2.60
2022-12-27T13:34:57.827Z,3.13
2022-12-27T13:37:44.282Z,2.50
2022-12-27T13:40:48.755Z,3.17
2022-12-27T13:44:16.066Z,3.80
2022-12-27T13:47:15.659Z,4.13
2022-12-27T13:50:03.971Z,3.65
2022-12-27T13:52:59.299Z,4.97
2022-12-27T13:55:43.304Z,6.03
2022-12-27T13:58:24.299Z,6.63
2022-12-27T14:00:59.176Z,6.45
2022-12-27T14:04:04.129Z,5.22
2022-12-27T14:06:45.355Z,6.38
2022-12-27T14:09:44.893Z,5.85
2022-12-27T14:12:42.990Z,5.30
2022-12-27T14:15:17.195Z,5.10
2022-12-27T14:18:07.646Z,3.38
2022-12-27T14:20:50.339Z,3.25
2022-12-27T14:23:30.266Z,3.03
2022-12-27T14:26:24.260Z,3.00
2022-12-27T14:29:00.162Z,2.40
2022-12-27T14:31:44.087Z,3.28
2022-12-27T14:34:19.156Z,3.20
2022-12-27T14:37:06.557Z,3.83
2022-12-27T14:39:38.136Z,3.58
2022-12-27T14:42:16.269Z,3.60
2022-12-27T14:44:54.200Z,2.95
2022-12-27T14:47:34.971Z,3.03
2022-12-27T14:50:44.174Z,2.60
2022-12-27T14:53:50.853Z,4.45
2022-12-27T14:56:19.411Z,3.20
2022-12-27T14:59:12.948Z,3.58
2022-12-27T15:01:56.786Z,3.10
2022-12-27T15:04:41.181Z,2.53
2022-12-27T15:07:32.473Z,3.42
2022-12-27T15:10:33.741Z,3.10
2022-12-27T15:13:14.765Z,3.47
2022-12-27T15:15:40.560Z,3.03
2022-12-27T15:18:25.273Z,2.85
2022-12-27T15:21:11.918Z,2.75
2022-12-27T15:23:58.202Z,2.53
2022-12-27T15:26:45.032Z,2.90
2022-12-27T15:29:10.881Z,2.25
2022-12-27T15:31:45.617Z,3.10
2022-12-27T15:34:29.778Z,2.60
2022-12-27T15:36:55.793Z,2.83
2022-12-27T15:39:33.740Z,3.05
2022-12-27T15:42:11.575Z,2.60
2022-12-27T15:45:21.714Z,3.40
2022-12-27T15:47:53.249Z,2.70
2022-12-27T15:50:40.230Z,2.83
2022-12-27T15:53:21.088Z,3.10
2022-12-27T15:56:06.833Z,3.00
2022-12-27T15:58:33.361Z,2.67
2022-12-27T16:01:26.198Z,3.65
2022-12-27T16:03:53.821Z,3.67
2022-12-27T16:06:47.276Z,3.30
2022-12-27T16:09:24.949Z,4.15
2022-12-27T16:12:12.543Z,3.30
2022-12-27T16:14:41.603Z,3.00
2022-12-27T16:17:33.825Z,2.80
2022-12-27T16:20:11.315Z,3.88
2022-12-27T16:22:48.415Z,3.05
2022-12-27T16:25:23.044Z,2.55
2022-12-27T16:28:02.031Z,2.55
2022-12-27T16:30:58.015Z,2.85
2022-12-27T16:33:34.064Z,2.72
2022-12-27T16:36:15.603Z,3.08
2022-12-27T16:39:26.353Z,3.88
2022-12-27T16:41:55.417Z,2.60
2022-12-27T16:44:24.159Z,2.30
2022-12-27T16:47:07.451Z,2.35
2022-12-27T16:49:33.233Z,3.20
2022-12-27T16:52:06.153Z,2.30
2022-12-27T16:55:01.737Z,2.85
2022-12-27T16:57:27.485Z,2.20
2022-12-27T17:00:01.643Z,2.80
2022-12-27T17:02:30.041Z,2.50
2022-12-27T17:04:59.521Z,2.33
2022-12-27T17:07:43.391Z,2.70
2022-12-27T17:10:27.266Z,2.25
2022-12-27T17:13:02.171Z,3.33
2022-12-27T17:15:29.849Z,2.70
2022-12-27T17:18:03.834Z,2.42
2022-12-27T17:20:30.557Z,2.35
2022-12-27T17:22:57.493Z,2.67
2022-12-27T17:25:35.115Z,3.03
2022-12-27T17:28:35.145Z,2.80
2022-12-27T17:31:17.403Z,3.28
2022-12-27T17:34:20.882Z,3.10
2022-12-27T17:37:16.802Z,4.13
2022-12-27T17:40:17.965Z,3.65
2022-12-27T17:43:28.839Z,2.83
2022-12-27T17:46:19.732Z,2.20
2022-12-27T17:48:45.807Z,2.45
2022-12-27T17:51:20.149Z,3.10
2022-12-27T17:54:06.088Z,3.78
2022-12-27T17:57:05.185Z,2.40
2022-12-27T17:59:34.126Z,2.90
2022-12-27T18:02:06.186Z,3.10
2022-12-27T18:04:38.409Z,3.03
2022-12-27T18:07:08.605Z,3.05
2022-12-27T18:09:40.517Z,3.25
2022-12-27T18:12:15.694Z,3.17
2022-12-27T18:14:42.613Z,3.17
2022-12-27T18:17:28.505Z,3.55
2022-12-27T18:19:55.331Z,3.88
2022-12-27T18:22:21.477Z,3.05
2022-12-27T18:24:47.390Z,2.95
2022-12-27T18:27:18.914Z,3.03
2022-12-27T18:29:46.109Z,2.97
2022-12-27T18:32:15.146Z,2.42
2022-12-27T18:34:44.152Z,3.33
2022-12-27T18:37:15.437Z,3.22
2022-12-27T18:39:48.533Z,3.35
2022-12-27T18:42:36.457Z,3.05
2022-12-27T18:45:34.806Z,3.08
2022-12-27T18:48:03.903Z,2.80
2022-12-27T18:50:33.019Z,3.67
2022-12-27T18:53:01.943Z,3.22
2022-12-27T18:55:28.262Z,2.85
2022-12-27T18:58:05.579Z,3.50
2022-12-27T19:00:31.456Z,2.92
2022-12-27T19:03:15.382Z,3.00
2022-12-27T19:05:59.090Z,3.00
2022-12-27T19:08:46.794Z,3.05
2022-12-27T19:11:33.026Z,3.60
2022-12-27T19:14:00.316Z,3.38
2022-12-27T19:16:33.438Z,3.13
2022-12-27T19:19:17.540Z,3.17
2022-12-27T19:21:44.139Z,3.63
2022-12-27T19:24:28.713Z,3.72
2022-12-27T19:26:56.433Z,3.38
2022-12-27T19:29:26.609Z,3.95
2022-12-27T19:31:58.701Z,3.53
2022-12-27T19:34:28.282Z,3.20
2022-12-27T19:36:55.065Z,3.50
2022-12-27T19:39:24.457Z,3.63
2022-12-27T19:41:51.168Z,3.25
2022-12-27T19:44:17.930Z,3.80
2022-12-27T19:46:44.315Z,4.07
2022-12-27T19:52:00.336Z,3.90
2022-12-27T19:54:27.072Z,4.03
2022-12-27T19:56:53.310Z,3.40
2022-12-27T19:59:21.736Z,3.30
2022-12-27T20:01:48.180Z,3.65
2022-12-27T20:04:15.914Z,4.00
2022-12-27T20:06:43.022Z,3.60
2022-12-27T20:09:14.058Z,3.28
2022-12-27T20:11:40.186Z,3.40
2022-12-27T20:14:06.249Z,3.63
2022-12-27T20:16:32.269Z,4.00
2022-12-27T20:18:58.173Z,4.45
2022-12-27T20:21:24.132Z,4.05
2022-12-27T20:23:50.330Z,4.30
2022-12-27T20:26:19.890Z,3.63
2022-12-27T20:28:45.888Z,4.95
2022-12-27T20:31:14.668Z,3.83
2022-12-27T20:33:41.232Z,5.38
2022-12-27T20:36:07.992Z,4.57
2022-12-27T20:38:35.329Z,3.10
2022-12-27T20:41:09.411Z,4.93
2022-12-27T20:43:36.084Z,4.35
2022-12-27T20:46:13.979Z,4.18
2022-12-27T20:48:41.614Z,4.90
2022-12-27T20:51:09.505Z,4.32
2022-12-27T20:53:36.078Z,4.55
2022-12-27T20:56:04.268Z,4.57
2022-12-27T20:58:31.637Z,4.70
2022-12-27T21:01:04.379Z,5.13
2022-12-27T21:03:30.258Z,4.63
2022-12-27T21:05:56.211Z,5.25
2022-12-27T21:08:22.057Z,5.05
2022-12-27T21:10:48.110Z,4.95
2022-12-27T21:13:14.241Z,4.47
2022-12-27T21:15:45.398Z,4.75
2022-12-27T21:18:11.462Z,5.47
2022-12-27T21:20:37.588Z,5.00
2022-12-27T21:23:04.013Z,4.45
2022-12-27T21:25:31.945Z,4.63
2022-12-27T21:27:58.122Z,4.78
2022-12-27T21:30:24.238Z,4.43
2022-12-27T21:32:50.186Z,4.60
2022-12-27T21:35:16.135Z,5.53
2022-12-27T21:37:42.007Z,4.50
2022-12-27T21:40:08.499Z,5.18
2022-12-27T21:42:34.367Z,5.00
2022-12-27T21:45:00.216Z,4.25
2022-12-27T21:47:28.637Z,4.10
2022-12-27T21:49:55.135Z,5.70
2022-12-27T21:52:21.003Z,4.95
2022-12-27T21:54:46.922Z,4.18
2022-12-27T21:57:12.925Z,4.82
2022-12-27T21:59:38.811Z,4.63
2022-12-27T22:02:04.878Z,4.57
2022-12-27T22:04:31.036Z,4.43
2022-12-27T22:06:57.198Z,6.07
2022-12-27T22:09:23.528Z,4.78
2022-12-27T22:11:49.610Z,4.93
2022-12-27T22:14:16.041Z,4.25
2022-12-27T22:16:41.928Z,3.80
2022-12-27T22:19:09.850Z,4.03
2022-12-27T22:21:37.669Z,4.18
2022-12-27T22:24:04.979Z,3.15
2022-12-27T22:26:38.930Z,3.45
2022-12-27T22:29:05.281Z,3.20
2022-12-27T22:31:34.592Z,3.45
2022-12-27T22:34:02.144Z,3.65
2022-12-27T22:36:28.531Z,3.78
2022-12-27T22:38:56.055Z,3.28
2022-12-27T22:41:27.455Z,3.58
2022-12-27T22:43:58.469Z,3.50
2022-12-27T22:46:25.507Z,3.83
2022-12-27T22:48:54.185Z,3.78
2022-12-27T22:51:23.488Z,3.40
2022-12-27T22:53:50.043Z,3.60
2022-12-27T22:56:25.404Z,3.33
2022-12-27T22:58:51.938Z,4.68
2022-12-27T23:01:24.319Z,3.70
2022-12-27T23:03:50.542Z,4.32
2022-12-27T23:06:17.054Z,4.68
2022-12-27T23:08:43.618Z,3.65
2022-12-27T23:11:30.625Z,3.63
2022-12-27T23:14:02.024Z,3.42
2022-12-27T23:16:28.195Z,3.95
2022-12-27T23:18:54.196Z,3.67
2022-12-27T23:21:23.989Z,3.60
2022-12-27T23:23:50.986Z,3.25
2022-12-27T23:26:19.780Z,3.47
2022-12-27T23:28:47.633Z,3.17
2022-12-27T23:31:14.686Z,3.30
2022-12-27T23:33:41.826Z,3.85
2022-12-27T23:36:08.457Z,3.22
2022-12-27T23:38:34.441Z,3.25
2022-12-27T23:41:03.580Z,3.33
2022-12-27T23:43:52.264Z,3.60
2022-12-27T23:46:26.678Z,3.75
2022-12-27T23:48:53.978Z,3.00
2022-12-27T23:51:20.868Z,3.42
2022-12-27T23:53:47.047Z,3.25
2022-12-27T23:56:16.262Z,3.50
2022-12-27T23:58:42.986Z,4.20
